Terminal Aerodrome Forecast
Issued by NWS

Current Version | Previous Version | Text Only | Print | Product List | Glossary On
Versions: 1 2 3 4 5 6 7 8 9 10 11 12 13 14 15 16 17 18
000
FTUS44 KLIX 171100
TAFMCB
TAF
KMCB 171124Z 1712/1812 05004KT P6SM BKN035
     FM172000 11007KT P6SM BKN025
     FM180600 07005KT P6SM BKN015
      TEMPO 1806/1810 5SM -SHRA=

USA.gov is the U.S. government's official web portal to all federal, state and local government web resources and services.